Pensacola Regional Airport
KPNS : now visible

Airfield :











YOU CAN JOIN US ON...

 
LOGIN :

Register | Disclaimer

   EN    FR    IT 

 









Legend :    VFR   Marginal VFR   IFR   Intensive IFR   Very Intensive IFR
Visi :
Ceiling :
>= 8 km
>= 3000ft
5 to 8 km
1000 to 3000 ft
1500m to 5 km
500 to 1000 ft
800 to 1500m
200 to 500 ft
< 800m
< 200 ft
Symbols :   Thunderstorms  Fog  Heavy snow  Heavy precipitations  Wind > 20 kt






- Airport Elevation : 121 ft
- IATA code : PNS


KPNS - Pensacola Regional

CURRENT METAR :
  • 240500Z AUTO 08004KT 10SM BKN070 16/14 A2995 RMK AO2 T01560144

EXPIRED METARs :
  • 240453Z 08005KT 10SM BKN009 BKN032 OVC047 16/14 A2995 RMK AO2 RAE29 SLP145 P0006 T01560144
  • 240407Z 32006KT 4SM RA BR BKN009 BKN032 OVC047 16/15 A2998 RMK AO2 P0002 T01610150
  • 240353Z 11008KT 7SM -RA SCT009 BKN022 OVC055 16/15 A2997 RMK AO2 SLP151 P0023 T01610150
  • 240331Z 12009KT 3SM +RA BR SCT009 BKN026 OVC048 17/15 A2997 RMK AO2 P0020 T01670150
  • 240310Z 11008KT 3SM R17/6000VP6000FT -RA BR SCT004 BKN011 OVC041 16/14 A2997 RMK AO2 P0012 T01610144
  • 240301Z 2 1/2SM R17/5000VP6000FT +RA BR BKN004 OVC011 16/14 A2997 RMK AO2 P0002 T01560144
  • 240253Z 20008KT 150V250 7SM -RA OVC005 16/14 A2998 RMK AO2 RAB00 SLP153 P0001 60001 T01560144 53005

TAF KPNS
Valid from the 24 at 00:00 until the 25 at 00:00 UTC


232338Z 2400/2424 28006KT P6SM VCSH BKN007 BKN011 OVC017
TEMPO 2400/2403 4SM -SHRA BKN011
FM240400 14006KT P6SM VCSH BKN024
FM240600 19005KT P6SM VCSH BKN035
FM240800 25004KT P6SM VCSH BKN023
FM241000 28005KT 3SM BR BKN016
FM241400 31010KT P6SM SCT090



MET'MAP, your aeronautical weather chart ! - Copyright ORBIFLY December 2007 - Disclaimer

ORBIFLY MET'MAP TEAM :

Programming & Development : Alexandra Zaïnal
Concept & original design : Baudouin d'Aumeries
Assistance for programming : Marc-Olivier Méhu
Technical & hardware support : Manuel Goepfert

Contact : metmap@orbifly.com




SOURCES & CREDITS :

   NOAA       Earth
Advisory